Terminal Aerodrome Forecast
Issued by NWS

Home | Current Version | Previous Version | Text Only | Print | Product List | Glossary On
Versions: 1 2 3 4 5 6 7 8 9 10 11 12 13 14 15 16 17 18 19
000
FTUS45 KTFX 032339
TAFGTF
TAF
KGTF 032339Z 0400/0424 VRB05KT P6SM FEW100 SCT250
     FM040200 VRB05KT P6SM SKC
     FM040600 23010KT P6SM SKC
     FM041500 32006KT P6SM SKC
     FM041900 36010KT P6SM SCT090=

USA.gov is the U.S. government's official web portal to all federal, state and local government web resources and services.